Time;durP1;ratioP1;P1;durP2;ratioP2;P2;SDS_P1;SDS_P2;PMS_P1;PMS_P2;Temp;Humidity;BMP_temperature;BMP_pressure;BME280_temperature;BME280_humidity;BME280_pressure;Samples;Min_cycle;Max_cycle;Signal;HPM_P1;HPM_P2
2022/10/06 00:02:20;;;;;;;2.08;1.30;;;16.40;99.90;;;;;;5010544;28;20034;-71
2022/10/06 00:04:46;;;;;;;2.70;1.10;;;16.50;99.90;;;;;;5009959;28;20037;-71
2022/10/06 00:07:14;;;;;;;3.72;1.45;;;16.50;99.90;;;;;;5009830;28;20038;-71
2022/10/06 00:09:41;;;;;;;2.95;1.38;;;16.40;99.90;;;;;;5011162;28;20029;-71
2022/10/06 00:12:08;;;;;;;2.95;1.15;;;16.30;99.90;;;;;;5011014;28;20049;-71
2022/10/06 00:14:34;;;;;;;3.25;1.60;;;16.20;99.90;;;;;;5012630;28;20034;-71
2022/10/06 00:17:00;;;;;;;1.98;1.25;;;16.10;99.90;;;;;;5013740;28;20033;-71
2022/10/06 00:19:26;;;;;;;1.58;1.05;;;16.00;99.90;;;;;;5014837;28;20030;-71
2022/10/06 00:21:52;;;;;;;5.50;2.42;;;16.00;99.90;;;;;;5014574;28;20034;-71
2022/10/06 00:24:17;;;;;;;2.22;0.98;;;16.00;99.90;;;;;;5014568;28;20492;-71
2022/10/06 00:26:45;;;;;;;2.92;1.10;;;16.10;99.90;;;;;;4996942;28;20498;-71
2022/10/06 00:29:12;;;;;;;3.63;1.23;;;16.10;99.90;;;;;;5014535;28;20382;-71
2022/10/06 00:31:38;;;;;;;2.15;0.90;;;16.00;99.90;;;;;;5013684;28;20036;-71
2022/10/06 00:34:04;;;;;;;2.90;1.40;;;16.10;99.90;;;;;;5012719;28;20121;-71
2022/10/06 00:36:30;;;;;;;2.08;0.93;;;16.10;99.90;;;;;;5013394;28;20034;-71
2022/10/06 00:38:55;;;;;;;2.42;1.40;;;16.00;99.90;;;;;;5014613;28;20034;-71
2022/10/06 00:41:21;;;;;;;2.70;1.48;;;16.00;99.90;;;;;;5014268;28;20041;-71
2022/10/06 00:43:58;;;;;;;3.78;1.75;;;16.00;99.90;;;;;;5014104;28;20030;-71
2022/10/06 00:46:37;;;;;;;3.55;0.90;;;16.00;99.90;;;;;;5013255;28;20059;-71
2022/10/06 00:49:14;;;;;;;3.35;1.75;;;15.80;99.90;;;;;;5014116;28;20034;-71
2022/10/06 00:51:50;;;;;;;1.60;1.10;;;15.80;99.90;;;;;;5014365;28;20088;-71
2022/10/06 00:54:17;;;;;;;2.85;1.20;;;15.60;99.90;;;;;;5012805;28;20029;-71
2022/10/06 00:56:43;;;;;;;3.35;1.35;;;15.50;99.90;;;;;;5012977;28;20049;-71
2022/10/06 00:59:16;;;;;;;3.00;1.25;;;15.50;99.90;;;;;;5012895;28;20150;-71
2022/10/06 01:02:00;;;;;;;5.05;1.35;;;15.50;99.90;;;;;;5013797;28;20397;-71
2022/10/06 01:04:30;;;;;;;3.42;1.50;;;15.40;99.90;;;;;;5010284;28;20088;-71
2022/10/06 01:06:58;;;;;;;4.63;1.67;;;15.50;99.90;;;;;;5009950;28;20085;-71
2022/10/06 01:09:25;;;;;;;11.35;2.10;;;15.50;99.90;;;;;;5012026;28;20022;-71
2022/10/06 01:11:55;;;;;;;3.80;2.10;;;15.50;99.90;;;;;;5012460;28;20449;-71
2022/10/06 01:14:23;;;;;;;4.80;2.33;;;15.50;99.90;;;;;;5011828;28;20044;-71
2022/10/06 01:16:59;;;;;;;3.63;1.30;;;15.50;99.90;;;;;;5012616;28;20041;-71
2022/10/06 01:19:52;;;;;;;7.88;2.22;;;15.20;99.90;;;;;;5012848;28;20069;-71
2022/10/06 01:22:43;;;;;;;10.85;1.75;;;15.20;99.90;;;;;;5013282;28;20037;-71
2022/10/06 01:25:13;;;;;;;2.33;1.33;;;15.10;99.90;;;;;;5012058;28;20040;-71
2022/10/06 01:27:44;;;;;;;3.80;1.92;;;15.10;99.90;;;;;;5012237;28;20092;-72
2022/10/06 01:30:15;;;;;;;3.55;1.95;;;15.20;99.90;;;;;;5012359;28;20034;-71
2022/10/06 01:32:42;;;;;;;3.60;1.85;;;15.20;99.90;;;;;;5012010;28;20033;-71
2022/10/06 01:35:09;;;;;;;8.30;2.92;;;15.20;99.90;;;;;;5012172;28;20033;-71
2022/10/06 01:37:34;;;;;;;5.43;2.30;;;15.30;99.90;;;;;;5011978;28;20084;-71
2022/10/06 01:40:00;;;;;;;7.93;2.47;;;15.30;99.90;;;;;;5012010;28;20073;-70
2022/10/06 01:42:30;;;;;;;12.68;1.60;;;15.20;99.90;;;;;;5012819;28;20034;-71
2022/10/06 01:44:56;;;;;;;3.50;1.75;;;15.20;99.90;;;;;;4998148;22;20113;-76
2022/10/06 01:47:22;;;;;;;8.20;2.80;;;15.20;99.90;;;;;;4973109;28;20059;-76
2022/10/06 01:49:47;;;;;;;4.07;2.00;;;15.30;99.90;;;;;;4989025;28;20550;-76
2022/10/06 01:52:13;;;;;;;3.35;1.80;;;15.20;99.90;;;;;;4973539;28;20034;-76
2022/10/06 01:54:39;;;;;;;3.22;2.08;;;15.20;99.90;;;;;;4960733;28;20031;-76
2022/10/06 01:57:07;;;;;;;3.08;1.58;;;15.10;99.90;;;;;;4954655;28;20031;-76
2022/10/06 01:59:33;;;;;;;4.05;1.30;;;15.10;99.90;;;;;;4969339;28;20447;-76
2022/10/06 02:01:59;;;;;;;3.17;1.50;;;15.00;99.90;;;;;;4953318;29;20027;-76
2022/10/06 02:04:25;;;;;;;3.42;1.83;;;15.10;99.90;;;;;;4969070;28;20032;-76
2022/10/06 02:06:51;;;;;;;5.00;1.77;;;15.10;99.90;;;;;;4969264;28;20031;-76
2022/10/06 02:09:17;;;;;;;5.57;1.65;;;15.10;99.90;;;;;;4954426;28;20038;-76
2022/10/06 02:11:43;;;;;;;4.78;2.00;;;15.10;99.90;;;;;;4954149;28;20420;-76
2022/10/06 02:14:08;;;;;;;7.05;2.03;;;15.10;99.90;;;;;;4953953;28;20093;-76
2022/10/06 02:16:34;;;;;;;4.13;2.03;;;15.00;99.90;;;;;;4972385;28;20038;-76
2022/10/06 02:19:00;;;;;;;2.55;1.70;;;15.00;99.90;;;;;;4973376;28;20069;-76
2022/10/06 02:21:26;;;;;;;4.13;1.73;;;14.90;99.90;;;;;;4971885;28;20494;-76
2022/10/06 02:23:52;;;;;;;3.00;1.42;;;14.90;99.90;;;;;;4972051;28;20031;-76
2022/10/06 02:26:18;;;;;;;4.53;2.42;;;14.90;99.90;;;;;;4973489;28;20487;-76
2022/10/06 02:28:51;;;;;;;6.72;2.20;;;14.90;99.90;;;;;;4973052;28;20108;-76
2022/10/06 02:31:16;;;;;;;5.10;2.08;;;14.80;99.90;;;;;;4973420;28;20415;-76
2022/10/06 02:33:43;;;;;;;5.05;2.30;;;14.70;99.90;;;;;;4971163;28;20033;-76
2022/10/06 02:36:14;;;;;;;7.85;2.05;;;14.60;99.90;;;;;;4972462;28;20023;-76
2022/10/06 02:38:40;;;;;;;9.77;2.15;;;14.70;99.90;;;;;;4971915;28;20027;-76
2022/10/06 02:41:08;;;;;;;4.15;2.08;;;14.60;99.90;;;;;;4973147;28;20065;-75
2022/10/06 02:43:34;;;;;;;3.47;2.08;;;14.50;99.90;;;;;;4971229;28;20038;-76
2022/10/06 02:46:03;;;;;;;5.30;2.22;;;14.50;99.90;;;;;;4973201;28;20035;-75
2022/10/06 02:48:29;;;;;;;4.15;2.38;;;14.50;99.90;;;;;;4955748;28;20042;-75
2022/10/06 02:51:03;;;;;;;3.58;2.28;;;14.60;99.90;;;;;;4953717;28;20090;-75
2022/10/06 02:53:29;;;;;;;3.63;2.25;;;14.70;99.90;;;;;;4952035;28;20027;-75
2022/10/06 02:56:12;;;;;;;6.28;2.70;;;14.70;99.90;;;;;;4953504;28;20383;-75
2022/10/06 02:58:38;;;;;;;4.25;1.95;;;14.90;99.90;;;;;;4953412;28;20058;-76
2022/10/06 03:01:13;;;;;;;8.57;2.88;;;15.00;99.90;;;;;;4953498;28;20087;-75
2022/10/06 03:03:40;;;;;;;5.55;2.15;;;15.00;99.90;;;;;;4959162;28;20046;-75
2022/10/06 03:06:21;;;;;;;6.68;2.80;;;15.00;99.90;;;;;;4961137;28;20038;-75
2022/10/06 03:08:56;;;;;;;7.70;2.80;;;15.00;99.90;;;;;;4934050;29;20027;-76
2022/10/06 03:11:34;;;;;;;4.10;2.05;;;15.00;99.90;;;;;;4949538;28;20097;-75
2022/10/06 03:14:00;;;;;;;4.03;1.88;;;15.20;99.90;;;;;;4971032;28;20026;-75
2022/10/06 03:16:33;;;;;;;2.95;1.63;;;15.60;99.90;;;;;;4970989;28;20027;-75
2022/10/06 03:19:00;;;;;;;4.93;1.38;;;15.90;99.90;;;;;;4972172;28;20030;-75
2022/10/06 03:21:29;;;;;;;2.92;1.80;;;16.10;99.90;;;;;;4972443;28;20078;-75
2022/10/06 03:23:56;;;;;;;2.85;1.52;;;16.20;99.90;;;;;;4971566;28;20513;-75
2022/10/06 03:26:32;;;;;;;2.42;0.90;;;16.20;99.90;;;;;;4971141;28;20039;-75
2022/10/06 03:28:59;;;;;;;2.30;1.33;;;16.30;99.90;;;;;;4972002;28;20146;-76
2022/10/06 03:31:25;;;;;;;2.83;1.67;;;16.40;99.90;;;;;;4971115;28;20053;-76
2022/10/06 03:33:51;;;;;;;2.05;0.80;;;16.50;99.90;;;;;;4970471;28;20038;-76
2022/10/06 03:36:20;;;;;;;4.78;1.20;;;16.50;99.90;;;;;;4970917;28;20046;-75
2022/10/06 03:38:46;;;;;;;1.83;0.45;;;16.50;99.90;;;;;;4971672;28;20049;-75
2022/10/06 03:41:18;;;;;;;2.17;0.60;;;16.50;99.90;;;;;;4972134;28;20478;-75
2022/10/06 03:43:45;;;;;;;1.33;0.60;;;16.40;99.90;;;;;;4971475;28;20711;-75
2022/10/06 03:46:14;;;;;;;3.22;0.40;;;16.40;99.90;;;;;;4971286;28;20045;-76
2022/10/06 03:48:41;;;;;;;1.50;0.60;;;16.50;99.90;;;;;;4970815;28;20056;-75
2022/10/06 03:51:19;;;;;;;4.45;0.32;;;16.50;99.90;;;;;;4972019;28;20569;-75
2022/10/06 03:53:49;;;;;;;0.00;0.00;;;16.50;99.90;;;;;;4971299;28;20058;-76
2022/10/06 03:56:27;;;;;;;0.30;0.30;;;16.50;99.90;;;;;;4970833;28;20081;-76
2022/10/06 03:59:02;;;;;;;3.15;0.80;;;16.50;99.90;;;;;;4971928;28;20038;-76
2022/10/06 04:01:48;;;;;;;0.50;0.28;;;16.60;99.90;;;;;;4970850;28;20086;-75
2022/10/06 04:04:14;;;;;;;1.13;0.55;;;16.50;99.90;;;;;;4970762;28;20041;-75
2022/10/06 04:06:43;;;;;;;0.25;0.20;;;16.60;99.90;;;;;;4971708;28;20395;-76
2022/10/06 04:09:11;;;;;;;0.55;0.32;;;16.50;99.90;;;;;;4971607;28;20026;-75
2022/10/06 04:11:38;;;;;;;0.45;0.43;;;16.50;99.90;;;;;;4970704;28;20031;-75
2022/10/06 04:14:08;;;;;;;0.82;0.10;;;16.50;99.90;;;;;;4970118;28;20030;-75
2022/10/06 04:16:37;;;;;;;1.60;0.30;;;16.50;99.90;;;;;;4986665;28;20052;-76
2022/10/06 04:19:08;;;;;;;0.30;0.20;;;16.50;99.90;;;;;;4959219;28;20038;-75
2022/10/06 04:21:36;;;;;;;0.55;0.20;;;16.40;99.90;;;;;;4952042;29;20070;-75
2022/10/06 04:24:03;;;;;;;4.75;0.30;;;16.40;99.90;;;;;;4950986;28;20035;-76
2022/10/06 04:26:33;;;;;;;2.05;0.68;;;16.60;99.90;;;;;;4946528;29;20042;-75
2022/10/06 04:28:59;;;;;;;6.35;2.47;;;16.60;99.90;;;;;;4953011;28;20027;-76
2022/10/06 04:31:28;;;;;;;2.50;0.82;;;16.60;99.90;;;;;;4951115;28;20083;-75
2022/10/06 04:33:58;;;;;;;0.52;0.30;;;16.70;99.90;;;;;;4950519;28;20034;-76
2022/10/06 04:36:27;;;;;;;0.30;0.20;;;16.60;99.90;;;;;;4952170;28;20035;-75
2022/10/06 04:38:57;;;;;;;0.88;0.57;;;16.70;99.90;;;;;;4945236;28;20045;-76
2022/10/06 04:41:27;;;;;;;1.02;0.43;;;16.70;99.90;;;;;;4969496;28;20085;-75
2022/10/06 04:43:53;;;;;;;0.93;0.20;;;16.60;99.90;;;;;;4953349;28;20085;-77
2022/10/06 04:46:21;;;;;;;3.72;0.38;;;16.60;99.90;;;;;;4985906;28;20458;-74
2022/10/06 04:48:51;;;;;;;0.17;0.10;;;16.60;99.90;;;;;;4970171;28;20419;-76
2022/10/06 04:51:18;;;;;;;0.55;0.30;;;16.60;99.90;;;;;;4969850;28;20023;-78
2022/10/06 04:53:44;;;;;;;0.20;0.20;;;16.60;99.90;;;;;;4970850;28;20031;-75
2022/10/06 04:56:13;;;;;;;2.67;0.38;;;16.60;99.90;;;;;;4969852;28;20471;-78
2022/10/06 04:58:48;;;;;;;4.68;0.50;;;16.60;99.90;;;;;;4971327;28;20026;-78
2022/10/06 05:01:25;;;;;;;0.77;0.30;;;16.50;99.90;;;;;;4973520;28;20067;-78
2022/10/06 05:03:57;;;;;;;0.22;0.10;;;16.50;99.90;;;;;;4985720;28;20069;-76
2022/10/06 05:06:26;;;;;;;1.75;0.55;;;16.60;99.90;;;;;;4993067;28;20057;-77
2022/10/06 05:09:08;;;;;;;0.85;0.30;;;16.50;99.90;;;;;;4992564;28;20516;-77
2022/10/06 05:11:34;;;;;;;1.75;0.95;;;16.60;99.90;;;;;;4992349;28;20066;-77
2022/10/06 05:14:00;;;;;;;4.20;0.43;;;16.50;99.90;;;;;;4992679;28;20034;-76
2022/10/06 05:16:28;;;;;;;1.90;0.45;;;16.40;99.90;;;;;;4992224;28;20045;-76
2022/10/06 05:18:54;;;;;;;9.80;0.50;;;16.40;99.90;;;;;;4989196;28;20043;-76
2022/10/06 05:21:26;;;;;;;2.25;0.25;;;16.50;99.90;;;;;;4972700;28;20074;-75
2022/10/06 05:23:52;;;;;;;2.30;0.55;;;16.40;99.90;;;;;;4957250;28;20110;-76
2022/10/06 05:26:21;;;;;;;1.15;0.40;;;16.40;99.90;;;;;;4973985;28;20574;-77
2022/10/06 05:28:48;;;;;;;4.38;1.00;;;16.30;99.90;;;;;;4972884;28;20027;-73
2022/10/06 05:31:19;;;;;;;1.55;0.95;;;16.30;99.90;;;;;;4973830;28;20027;-76
2022/10/06 05:33:48;;;;;;;3.50;0.52;;;16.20;99.90;;;;;;4972507;28;20058;-77
2022/10/06 05:36:18;;;;;;;0.88;0.50;;;16.30;99.90;;;;;;4974284;28;20027;-76
2022/10/06 05:38:45;;;;;;;0.57;0.40;;;16.30;99.90;;;;;;4973376;28;20026;-76
2022/10/06 05:41:16;;;;;;;0.25;0.22;;;16.30;99.90;;;;;;4972332;28;20039;-77
2022/10/06 05:43:42;;;;;;;0.85;0.52;;;16.30;99.90;;;;;;4971784;28;20058;-77
2022/10/06 05:46:18;;;;;;;4.35;0.65;;;16.20;99.90;;;;;;4972474;28;20034;-77
2022/10/06 05:48:47;;;;;;;0.85;0.32;;;16.20;99.90;;;;;;4971051;28;20110;-77
2022/10/06 05:51:14;;;;;;;1.35;0.55;;;16.10;99.90;;;;;;4972295;28;20339;-76
2022/10/06 05:53:40;;;;;;;3.00;1.13;;;16.30;99.90;;;;;;4970594;28;20023;-78
2022/10/06 05:56:12;;;;;;;4.22;0.50;;;16.30;99.90;;;;;;4971023;28;20023;-78
2022/10/06 05:58:40;;;;;;;13.63;0.88;;;16.30;99.90;;;;;;4972299;28;20113;-76
2022/10/06 06:01:12;;;;;;;2.95;0.70;;;16.30;99.90;;;;;;4972748;28;20490;-77
2022/10/06 06:03:41;;;;;;;0.38;0.25;;;16.40;99.90;;;;;;4954203;28;20043;-78
2022/10/06 06:06:23;;;;;;;0.90;0.55;;;16.50;99.90;;;;;;4969168;28;20537;-78
2022/10/06 06:09:17;;;;;;;5.57;0.30;;;16.30;99.90;;;;;;4969193;28;20500;-76
2022/10/06 06:11:46;;;;;;;2.47;0.55;;;16.30;99.90;;;;;;4977083;28;20043;-76
2022/10/06 06:14:16;;;;;;;3.35;0.60;;;16.30;99.90;;;;;;4991292;28;20113;-76
2022/10/06 06:16:43;;;;;;;10.40;0.85;;;16.20;99.90;;;;;;4991330;28;20113;-77
2022/10/06 06:19:11;;;;;;;1.90;0.55;;;16.20;99.90;;;;;;4984544;28;20141;-76
2022/10/06 06:21:37;;;;;;;3.38;1.35;;;16.20;99.90;;;;;;4974095;28;20035;-77
2022/10/06 06:24:05;;;;;;;2.42;0.55;;;16.20;99.90;;;;;;4973180;28;20034;-77
2022/10/06 06:26:34;;;;;;;0.63;0.40;;;16.30;99.90;;;;;;4973173;28;20522;-78
2022/10/06 06:29:04;;;;;;;7.07;0.40;;;16.20;99.90;;;;;;4973184;28;20034;-77
2022/10/06 06:31:36;;;;;;;4.90;1.40;;;16.20;99.90;;;;;;4973260;28;20067;-77
2022/10/06 06:34:05;;;;;;;5.63;2.22;;;16.40;99.90;;;;;;4971504;28;20027;-77
2022/10/06 06:36:39;;;;;;;5.10;0.38;;;16.30;99.90;;;;;;4971721;28;20027;-77
2022/10/06 06:39:11;;;;;;;1.15;0.40;;;16.40;99.90;;;;;;4973132;28;20391;-77
2022/10/06 06:41:45;;;;;;;5.18;0.50;;;16.40;99.90;;;;;;4972788;28;20066;-76
2022/10/06 06:44:12;;;;;;;10.90;1.08;;;16.30;99.90;;;;;;4986910;28;20035;-77
2022/10/06 06:46:42;;;;;;;11.75;1.05;;;16.30;99.90;;;;;;4971537;28;20023;-76
2022/10/06 06:49:09;;;;;;;1.42;0.35;;;16.30;99.90;;;;;;4972667;28;20027;-77
2022/10/06 06:51:39;;;;;;;11.05;0.63;;;16.50;99.90;;;;;;4971587;28;20364;-77
2022/10/06 06:54:05;;;;;;;0.65;0.40;;;16.60;99.90;;;;;;4972448;28;20029;-77
2022/10/06 06:56:37;;;;;;;9.25;0.95;;;16.50;99.90;;;;;;4971707;28;20185;-77
2022/10/06 06:59:09;;;;;;;1.70;0.38;;;16.60;99.90;;;;;;4971642;28;20394;-77
2022/10/06 07:01:35;;;;;;;1.45;0.47;;;16.70;99.90;;;;;;4972802;28;20038;-77
2022/10/06 07:04:02;;;;;;;4.82;1.05;;;16.80;99.90;;;;;;4972342;28;20035;-77
2022/10/06 07:06:30;;;;;;;0.88;0.20;;;16.90;99.90;;;;;;4971283;28;20022;-77
2022/10/06 07:08:58;;;;;;;2.25;0.98;;;16.90;99.90;;;;;;4972448;28;20418;-77
2022/10/06 07:11:34;;;;;;;4.43;0.45;;;17.00;99.90;;;;;;4981550;28;20030;-77
2022/10/06 07:14:05;;;;;;;4.57;0.70;;;17.00;99.90;;;;;;4991836;28;20026;-77
2022/10/06 07:25:25;;;;;;;2.30;0.60;;;17.10;99.90;;;;;;4970004;28;20030;-77
2022/10/06 07:27:51;;;;;;;1.67;0.77;;;17.10;99.90;;;;;;4972223;28;20101;-77
2022/10/06 07:30:25;;;;;;;1.98;0.50;;;17.10;99.90;;;;;;4972117;28;20030;-77
2022/10/06 07:32:52;;;;;;;3.13;1.00;;;17.10;99.90;;;;;;4970682;28;20043;-77
2022/10/06 07:35:21;;;;;;;3.83;0.43;;;17.00;99.90;;;;;;4972393;28;20117;-77
2022/10/06 07:37:48;;;;;;;0.77;0.38;;;17.00;99.90;;;;;;4970894;28;20030;-77
2022/10/06 07:40:15;;;;;;;2.00;0.25;;;16.90;99.90;;;;;;4970877;28;20513;-77
2022/10/06 07:42:48;;;;;;;1.25;0.63;;;16.70;99.90;;;;;;4970348;28;20391;-77
2022/10/06 07:45:37;;;;;;;1.00;0.25;;;16.70;99.90;;;;;;4983674;23;20108;-68
2022/10/06 07:48:23;;;;;;;5.53;0.73;;;16.70;99.90;;;;;;4971980;28;20082;-69
2022/10/06 07:50:51;;;;;;;2.00;0.63;;;16.70;99.90;;;;;;4971327;28;20537;-56
2022/10/06 07:53:17;;;;;;;6.80;0.77;;;16.80;99.90;;;;;;4971567;28;20073;-53
2022/10/06 07:55:46;;;;;;;3.08;0.55;;;16.80;99.90;;;;;;4970486;28;20030;-53
2022/10/06 07:58:18;;;;;;;8.85;0.70;;;16.80;99.90;;;;;;4970364;28;20617;-56
2022/10/06 08:00:47;;;;;;;3.20;0.95;;;16.90;99.90;;;;;;4970609;28;20406;-53
2022/10/06 08:03:16;;;;;;;0.90;0.40;;;17.10;99.90;;;;;;4971205;28;20444;-54
2022/10/06 08:05:48;;;;;;;0.43;0.20;;;17.30;99.90;;;;;;4970592;28;20062;-52
2022/10/06 08:08:14;;;;;;;1.52;0.30;;;17.40;99.90;;;;;;4971541;28;20023;-55
2022/10/06 08:10:42;;;;;;;4.50;0.95;;;17.30;99.90;;;;;;4975959;28;20474;-53
2022/10/06 08:13:07;;;;;;;1.40;0.82;;;17.30;99.90;;;;;;4990972;28;20077;-54
2022/10/06 08:15:34;;;;;;;0.20;0.20;;;17.40;99.90;;;;;;4989661;28;20502;-54
2022/10/06 08:18:01;;;;;;;4.28;0.75;;;17.40;99.90;;;;;;4991097;28;20034;-50
2022/10/06 08:20:27;;;;;;;5.70;0.88;;;17.40;99.90;;;;;;4974504;28;20565;-55
2022/10/06 08:22:53;;;;;;;1.27;0.30;;;17.30;99.90;;;;;;4970006;28;20038;-54
2022/10/06 08:25:19;;;;;;;4.35;0.30;;;17.20;99.90;;;;;;4973806;28;20495;-56
2022/10/06 08:27:45;;;;;;;1.13;0.47;;;17.20;99.90;;;;;;4971653;28;20398;-52
2022/10/06 08:30:12;;;;;;;1.85;0.40;;;17.30;99.90;;;;;;4971592;28;20036;-53
2022/10/06 08:32:41;;;;;;;3.92;0.32;;;17.30;99.90;;;;;;4971342;28;20037;-55
2022/10/06 08:35:08;;;;;;;1.75;0.40;;;17.20;99.90;;;;;;4973926;28;20030;-53
2022/10/06 08:37:34;;;;;;;1.75;0.30;;;17.20;99.90;;;;;;4973861;28;20398;-53
2022/10/06 08:40:00;;;;;;;4.32;0.93;;;17.10;99.90;;;;;;4975247;28;20133;-55
2022/10/06 08:42:41;;;;;;;1.98;0.30;;;17.10;99.90;;;;;;4975059;28;20602;-54
2022/10/06 08:45:35;;;;;;;3.08;0.43;;;17.20;99.90;;;;;;4974960;28;20031;-52
2022/10/06 08:48:27;;;;;;;2.53;0.30;;;17.00;99.90;;;;;;4973587;28;20038;-54
2022/10/06 08:50:59;;;;;;;7.25;0.73;;;17.10;99.90;;;;;;4954753;29;20101;-53
2022/10/06 08:53:49;;;;;;;2.15;0.40;;;17.40;99.90;;;;;;4969992;28;20031;-56
2022/10/06 08:56:26;;;;;;;4.20;0.52;;;17.80;99.90;;;;;;4955785;28;20101;-55
2022/10/06 08:58:57;;;;;;;2.00;0.57;;;18.10;99.70;;;;;;4955652;28;20046;-56
2022/10/06 09:01:46;;;;;;;;;;;18.20;99.70;;;;;;4970237;28;20118;-53
2022/10/06 09:04:28;;;;;;;1.90;0.40;;;18.40;99.90;;;;;;4954228;28;19921;-55
2022/10/06 09:07:14;;;;;;;7.03;0.73;;;18.40;99.50;;;;;;4970039;28;20023;-57
2022/10/06 09:10:20;;;;;;;6.97;0.52;;;18.50;99.20;;;;;;4970034;28;20403;-55
2022/10/06 09:12:52;;;;;;;2.45;0.35;;;18.50;99.90;;;;;;4955292;28;20042;-54
2022/10/06 09:15:37;;;;;;;4.63;1.10;;;18.60;99.60;;;;;;4955268;28;20031;-56
2022/10/06 09:18:24;;;;;;;2.33;0.90;;;18.70;99.50;;;;;;4955332;28;20406;-55
2022/10/06 09:21:44;;;;;;;5.47;0.40;;;18.70;98.80;;;;;;4974226;28;20035;-73
2022/10/06 09:24:16;;;;;;;1.02;0.30;;;18.80;99.20;;;;;;4917293;29;20058;-74
2022/10/06 09:26:45;;;;;;;3.42;0.50;;;18.80;99.90;;;;;;4917974;29;20093;-66
2022/10/06 09:29:13;;;;;;;3.22;1.17;;;18.60;99.90;;;;;;4917629;29;20139;-66
2022/10/06 09:31:49;;;;;;;3.72;1.00;;;18.50;99.90;;;;;;4917830;29;20065;-66
2022/10/06 09:34:51;;;;;;;6.47;1.67;;;18.30;99.90;;;;;;4932902;29;20032;-66
2022/10/06 09:37:17;;;;;;;8.48;1.13;;;18.10;99.90;;;;;;4918815;29;20050;-67
2022/10/06 09:39:48;;;;;;;3.75;0.50;;;18.30;99.90;;;;;;4917369;29;20492;-66
2022/10/06 09:42:33;;;;;;;2.08;0.40;;;18.30;99.90;;;;;;4916951;29;20054;-66
2022/10/06 09:45:14;;;;;;;1.75;0.63;;;18.50;99.90;;;;;;4917631;29;20040;-66
2022/10/06 09:47:43;;;;;;;2.55;0.60;;;18.70;99.90;;;;;;4933218;29;20043;-66
2022/10/06 09:50:24;;;;;;;1.60;0.40;;;18.90;99.90;;;;;;4917162;29;20135;-66
2022/10/06 09:52:59;;;;;;;2.28;1.00;;;19.10;99.90;;;;;;4932753;29;20039;-67
2022/10/06 09:55:37;;;;;;;1.80;0.43;;;19.20;99.90;;;;;;4965681;28;20038;-66
2022/10/06 09:58:36;;;;;;;6.63;1.05;;;18.90;98.60;;;;;;4973848;28;20034;-65
2022/10/06 10:01:10;;;;;;;4.90;0.77;;;18.50;98.80;;;;;;4966281;28;20054;-67
2022/10/06 10:03:50;;;;;;;3.25;1.35;;;18.40;98.80;;;;;;4972014;28;20118;-67
2022/10/06 10:06:30;;;;;;;2.38;0.38;;;18.40;98.70;;;;;;4956993;28;20427;-67
2022/10/06 10:09:22;;;;;;;10.10;0.60;;;18.50;97.90;;;;;;4972422;28;20030;-67
2022/10/06 10:12:30;;;;;;;3.83;0.47;;;18.80;97.30;;;;;;4985745;28;20026;-66
2022/10/06 10:15:10;;;;;;;4.05;0.88;;;18.90;96.70;;;;;;4991941;28;20109;-66
2022/10/06 10:18:02;;;;;;;2.80;0.57;;;19.20;95.30;;;;;;4993270;28;20038;-65
2022/10/06 10:20:49;;;;;;;3.60;0.30;;;19.20;95.70;;;;;;4977815;28;20027;-65
2022/10/06 10:23:32;;;;;;;0.85;0.20;;;19.70;95.60;;;;;;4972076;28;20379;-65
2022/10/06 10:26:25;;;;;;;3.55;0.75;;;20.00;94.70;;;;;;4958170;28;20031;-65
2022/10/06 10:29:44;;;;;;;3.72;0.77;;;20.10;94.60;;;;;;4953973;28;20458;-65
2022/10/06 10:32:37;;;;;;;2.15;0.77;;;20.20;94.30;;;;;;4952913;29;20034;-66
2022/10/06 10:35:29;;;;;;;6.90;0.77;;;20.40;94.00;;;;;;4936178;29;20034;-65
2022/10/06 10:38:18;;;;;;;3.00;0.93;;;20.30;92.70;;;;;;4952433;28;20027;-66
2022/10/06 10:41:14;;;;;;;4.38;0.43;;;20.50;92.80;;;;;;4953581;28;20125;-65
2022/10/06 10:43:46;;;;;;;1.10;0.80;;;20.90;92.20;;;;;;4952106;28;20039;-66
2022/10/06 10:46:32;;;;;;;5.53;0.65;;;21.20;91.40;;;;;;4953469;28;20102;-66
2022/10/06 10:49:04;;;;;;;8.88;0.80;;;21.40;90.80;;;;;;4956727;28;20061;-67
2022/10/06 10:51:46;;;;;;;2.10;0.43;;;21.60;90.10;;;;;;4971196;28;20027;-67
2022/10/06 10:54:44;;;;;;;3.53;0.60;;;21.00;90.60;;;;;;4972540;28;20030;-66
2022/10/06 10:57:20;;;;;;;4.72;0.50;;;21.00;89.90;;;;;;4969900;28;20073;-67
2022/10/06 11:00:15;;;;;;;0.47;0.43;;;21.10;90.20;;;;;;4955770;28;20031;-67
2022/10/06 11:02:40;;;;;;;3.17;0.60;;;20.90;90.50;;;;;;4972160;28;20062;-65
2022/10/06 11:06:13;;;;;;;5.28;1.30;;;21.00;90.50;;;;;;4972560;28;20081;-66
2022/10/06 11:09:04;;;;;;;1.73;0.30;;;21.80;90.60;;;;;;4968390;28;20039;-66
2022/10/06 11:12:32;;;;;;;2.85;0.38;;;21.90;86.90;;;;;;4983348;28;20030;-64
2022/10/06 11:15:35;;;;;;;2.60;0.20;;;23.80;80.00;;;;;;4989008;28;20022;-67
2022/10/06 11:18:33;;;;;;;6.43;0.43;;;24.80;75.50;;;;;;4972694;28;20494;-67
2022/10/06 11:21:33;;;;;;;5.13;0.50;;;24.80;73.00;;;;;;4970377;28;20130;-67
2022/10/06 11:24:24;;;;;;;4.35;0.55;;;25.20;73.20;;;;;;4952234;28;20071;-67
2022/10/06 11:27:13;;;;;;;2.72;0.43;;;26.80;69.50;;;;;;4972336;28;20535;-67
2022/10/06 11:30:07;;;;;;;2.60;0.43;;;25.60;66.50;;;;;;4966436;28;20039;-70
2022/10/06 11:33:16;;;;;;;5.38;0.52;;;26.50;68.00;;;;;;4964838;28;20019;-67
2022/10/06 11:35:44;;;;;;;0.65;0.47;;;25.10;67.30;;;;;;4952333;28;20031;-67
2022/10/06 11:38:31;;;;;;;1.02;0.30;;;25.00;67.70;;;;;;4966304;28;20050;-67
2022/10/06 11:41:30;;;;;;;6.63;0.40;;;23.40;70.00;;;;;;4966493;28;20122;-66
2022/10/06 11:44:14;;;;;;;1.45;0.40;;;24.90;69.10;;;;;;4966529;28;20518;-67
2022/10/06 11:46:51;;;;;;;1.17;0.17;;;26.80;65.70;;;;;;4952620;28;20034;-68
2022/10/06 11:49:32;;;;;;;5.07;0.65;;;26.30;63.00;;;;;;4970971;28;20491;-68
2022/10/06 11:52:06;;;;;;;;;;;24.40;65.30;;;;;;4972180;28;20035;-67
2022/10/06 11:54:53;;;;;;;0.10;0.00;;;25.10;65.40;;;;;;4971682;28;19945;-67
2022/10/06 11:57:22;;;;;;;1.95;0.30;;;25.10;64.00;;;;;;4971320;28;20055;-67
2022/10/06 11:59:52;;;;;;;1.55;0.65;;;26.70;64.50;;;;;;4971768;28;20034;-67
2022/10/06 12:02:33;;;;;;;3.25;0.60;;;26.10;62.80;;;;;;4971246;28;20031;-67
2022/10/06 12:05:31;;;;;;;6.68;0.60;;;26.80;63.90;;;;;;4971620;28;20130;-67
2022/10/06 12:07:56;;;;;;;1.92;0.40;;;26.90;62.90;;;;;;4971189;28;20042;-67
2022/10/06 12:10:28;;;;;;;3.92;0.40;;;24.50;64.10;;;;;;4977436;28;20042;-67
2022/10/06 12:13:21;;;;;;;3.17;0.40;;;24.50;67.70;;;;;;4994970;28;20042;-67
2022/10/06 12:16:31;;;;;;;6.93;0.50;;;26.20;62.20;;;;;;4994185;28;20451;-67
2022/10/06 12:18:56;;;;;;;3.60;0.70;;;23.80;64.90;;;;;;4990040;28;20038;-67
2022/10/06 12:21:47;;;;;;;6.00;0.63;;;23.80;68.00;;;;;;4974750;28;20038;-67
2022/10/06 12:24:33;;;;;;;3.90;0.32;;;26.50;65.20;;;;;;4969676;28;20046;-67
2022/10/06 12:27:16;;;;;;;5.45;0.75;;;23.90;65.90;;;;;;4964496;28;20043;-67
2022/10/06 12:30:02;;;;;;;2.40;0.43;;;23.60;68.00;;;;;;4955018;28;20031;-67
2022/10/06 12:32:47;;;;;;;2.45;0.30;;;24.40;69.00;;;;;;4954316;28;20028;-67
2022/10/06 12:35:33;;;;;;;3.30;0.30;;;24.40;67.50;;;;;;4955624;28;20039;-67
2022/10/06 12:38:04;;;;;;;6.80;0.40;;;24.70;64.40;;;;;;4955776;29;20027;-67
2022/10/06 12:40:54;;;;;;;1.17;0.38;;;26.10;63.60;;;;;;4955820;28;20105;-66
2022/10/06 12:43:22;;;;;;;3.60;0.43;;;25.60;65.10;;;;;;4955124;28;20042;-67
2022/10/06 12:45:54;;;;;;;2.33;0.40;;;26.60;64.40;;;;;;4955486;28;20122;-67
2022/10/06 12:48:36;;;;;;;0.10;0.10;;;24.80;66.90;;;;;;4955899;28;20147;-67
2022/10/06 12:51:41;;;;;;;4.88;0.88;;;24.30;67.80;;;;;;4955486;28;20390;-67
2022/10/06 12:54:41;;;;;;;1.13;0.22;;;24.90;68.40;;;;;;4955337;28;20403;-66
2022/10/06 12:57:14;;;;;;;2.08;0.77;;;27.60;64.90;;;;;;4955469;28;20491;-67
2022/10/06 12:59:40;;;;;;;1.60;0.40;;;28.30;63.30;;;;;;4984023;28;20061;-66
2022/10/06 13:02:20;;;;;;;2.03;0.70;;;28.00;63.60;;;;;;4994146;28;20061;-66
2022/10/06 13:04:59;;;;;;;5.00;0.85;;;27.40;63.90;;;;;;4992532;28;20034;-66
2022/10/06 13:07:32;;;;;;;0.43;0.10;;;26.20;64.30;;;;;;4994177;28;20554;-58
2022/10/06 13:10:13;;;;;;;3.33;0.43;;;24.10;68.00;;;;;;4993051;28;20164;-58
2022/10/06 13:12:46;;;;;;;;;;;22.70;71.10;;;;;;4958799;28;20066;-59
2022/10/06 13:15:33;;;;;;;2.75;0.55;;;22.40;72.50;;;;;;4992639;28;19910;-59
2022/10/06 13:18:10;;;;;;;6.63;0.77;;;22.40;73.20;;;;;;4992628;28;20383;-59
2022/10/06 13:20:52;;;;;;;9.35;0.68;;;24.40;71.70;;;;;;4976227;28;20037;-58
2022/10/06 13:23:30;;;;;;;4.28;0.40;;;22.60;69.90;;;;;;4973072;28;20117;-57
2022/10/06 13:26:03;;;;;;;6.97;0.60;;;22.50;74.00;;;;;;4973111;28;20031;-58
2022/10/06 13:28:46;;;;;;;9.82;1.13;;;24.00;73.20;;;;;;4973087;28;20118;-58
2022/10/06 13:31:34;;;;;;;6.68;0.60;;;23.30;71.40;;;;;;4973046;28;20033;-58
2022/10/06 13:34:11;;;;;;;2.35;0.52;;;24.30;71.90;;;;;;4972730;28;20489;-58
2022/10/06 13:36:43;;;;;;;17.58;8.50;;;26.40;68.90;;;;;;4972943;28;20027;-62